sensor_id;sensor_type;location;lat;lon;timestamp;temperature;humidity
64226;DHT22;50545;56.064;26.178;2022-07-29T00:00:07;14.00;99.90
64226;DHT22;50545;56.064;26.178;2022-07-29T00:02:35;14.00;99.90
64226;DHT22;50545;56.064;26.178;2022-07-29T00:05:04;14.00;99.90
64226;DHT22;50545;56.064;26.178;2022-07-29T00:07:31;13.90;99.90
64226;DHT22;50545;56.064;26.178;2022-07-29T00:09:59;13.90;99.90
64226;DHT22;50545;56.064;26.178;2022-07-29T00:12:26;13.80;99.90
64226;DHT22;50545;56.064;26.178;2022-07-29T00:14:56;13.80;99.90
64226;DHT22;50545;56.064;26.178;2022-07-29T00:17:24;13.80;99.90
64226;DHT22;50545;56.064;26.178;2022-07-29T00:19:52;13.80;99.90
64226;DHT22;50545;56.064;26.178;2022-07-29T00:22:20;13.70;99.90
64226;DHT22;50545;56.064;26.178;2022-07-29T00:24:48;13.70;99.90
64226;DHT22;50545;56.064;26.178;2022-07-29T00:27:17;13.70;99.90
64226;DHT22;50545;56.064;26.178;2022-07-29T00:29:44;13.60;99.90
64226;DHT22;50545;56.064;26.178;2022-07-29T00:32:11;13.50;99.90
64226;DHT22;50545;56.064;26.178;2022-07-29T00:34:39;13.50;99.90
64226;DHT22;50545;56.064;26.178;2022-07-29T00:37:25;13.50;99.90
64226;DHT22;50545;56.064;26.178;2022-07-29T00:39:52;13.40;99.90
64226;DHT22;50545;56.064;26.178;2022-07-29T00:42:20;13.30;99.90
64226;DHT22;50545;56.064;26.178;2022-07-29T00:44:47;13.20;99.90
64226;DHT22;50545;56.064;26.178;2022-07-29T00:47:14;13.20;99.90
64226;DHT22;50545;56.064;26.178;2022-07-29T00:49:42;13.20;99.90
64226;DHT22;50545;56.064;26.178;2022-07-29T00:52:11;13.10;99.90
64226;DHT22;50545;56.064;26.178;2022-07-29T00:54:42;13.10;99.90
64226;DHT22;50545;56.064;26.178;2022-07-29T00:57:12;13.00;99.90
64226;DHT22;50545;56.064;26.178;2022-07-29T00:59:40;12.90;99.90
64226;DHT22;50545;56.064;26.178;2022-07-29T01:02:07;12.90;99.90
64226;DHT22;50545;56.064;26.178;2022-07-29T01:04:35;12.90;99.90
64226;DHT22;50545;56.064;26.178;2022-07-29T01:07:02;12.80;99.90
64226;DHT22;50545;56.064;26.178;2022-07-29T01:09:32;12.80;99.90
64226;DHT22;50545;56.064;26.178;2022-07-29T01:12:32;12.80;99.90
64226;DHT22;50545;56.064;26.178;2022-07-29T01:15:03;12.70;99.90
64226;DHT22;50545;56.064;26.178;2022-07-29T01:31:56;12.50;99.90
64226;DHT22;50545;56.064;26.178;2022-07-29T01:34:39;12.40;99.90
64226;DHT22;50545;56.064;26.178;2022-07-29T01:37:39;12.40;99.90
64226;DHT22;50545;56.064;26.178;2022-07-29T01:40:20;12.40;99.90
64226;DHT22;50545;56.064;26.178;2022-07-29T01:42:54;12.30;99.90
64226;DHT22;50545;56.064;26.178;2022-07-29T01:48:06;12.30;99.90
64226;DHT22;50545;56.064;26.178;2022-07-29T01:53:30;12.20;99.90
64226;DHT22;50545;56.064;26.178;2022-07-29T01:56:04;12.20;99.90
64226;DHT22;50545;56.064;26.178;2022-07-29T01:58:35;12.20;99.90
64226;DHT22;50545;56.064;26.178;2022-07-29T02:01:04;12.20;99.90
64226;DHT22;50545;56.064;26.178;2022-07-29T02:03:33;12.20;99.90
64226;DHT22;50545;56.064;26.178;2022-07-29T02:06:04;12.20;99.90
64226;DHT22;50545;56.064;26.178;2022-07-29T02:08:32;12.10;99.90
64226;DHT22;50545;56.064;26.178;2022-07-29T02:11:01;12.10;99.90
64226;DHT22;50545;56.064;26.178;2022-07-29T02:13:32;12.10;99.90
64226;DHT22;50545;56.064;26.178;2022-07-29T02:16:02;12.10;99.90
64226;DHT22;50545;56.064;26.178;2022-07-29T02:18:33;12.10;99.90
64226;DHT22;50545;56.064;26.178;2022-07-29T02:21:03;12.10;99.90
64226;DHT22;50545;56.064;26.178;2022-07-29T02:23:40;12.10;99.90
64226;DHT22;50545;56.064;26.178;2022-07-29T02:26:18;12.10;99.90
64226;DHT22;50545;56.064;26.178;2022-07-29T02:28:47;12.00;99.90
64226;DHT22;50545;56.064;26.178;2022-07-29T02:31:17;12.00;99.90
64226;DHT22;50545;56.064;26.178;2022-07-29T02:33:47;12.00;99.90
64226;DHT22;50545;56.064;26.178;2022-07-29T02:36:16;12.00;99.90
64226;DHT22;50545;56.064;26.178;2022-07-29T02:38:44;12.00;99.90
64226;DHT22;50545;56.064;26.178;2022-07-29T02:41:30;11.90;99.90
64226;DHT22;50545;56.064;26.178;2022-07-29T02:44:18;11.90;99.90
64226;DHT22;50545;56.064;26.178;2022-07-29T02:46:50;11.90;99.90
64226;DHT22;50545;56.064;26.178;2022-07-29T02:52:15;11.90;99.90
64226;DHT22;50545;56.064;26.178;2022-07-29T02:59:58;11.90;99.90
64226;DHT22;50545;56.064;26.178;2022-07-29T03:02:34;11.90;99.90
64226;DHT22;50545;56.064;26.178;2022-07-29T03:05:03;11.90;99.90
64226;DHT22;50545;56.064;26.178;2022-07-29T03:07:31;11.90;99.90
64226;DHT22;50545;56.064;26.178;2022-07-29T03:10:00;12.00;99.90
64226;DHT22;50545;56.064;26.178;2022-07-29T03:12:28;12.00;99.90
64226;DHT22;50545;56.064;26.178;2022-07-29T03:14:57;12.00;99.90
64226;DHT22;50545;56.064;26.178;2022-07-29T03:17:26;12.10;99.90
64226;DHT22;50545;56.064;26.178;2022-07-29T03:19:54;12.10;99.90
64226;DHT22;50545;56.064;26.178;2022-07-29T03:22:22;12.10;99.90
64226;DHT22;50545;56.064;26.178;2022-07-29T03:24:50;12.10;99.90
64226;DHT22;50545;56.064;26.178;2022-07-29T03:27:17;12.20;99.90
64226;DHT22;50545;56.064;26.178;2022-07-29T03:29:44;12.20;99.90
64226;DHT22;50545;56.064;26.178;2022-07-29T03:32:15;12.20;99.90
64226;DHT22;50545;56.064;26.178;2022-07-29T03:34:49;12.20;99.90
64226;DHT22;50545;56.064;26.178;2022-07-29T03:37:16;12.30;99.90
64226;DHT22;50545;56.064;26.178;2022-07-29T03:39:44;12.30;99.90
64226;DHT22;50545;56.064;26.178;2022-07-29T03:42:15;12.40;99.90
64226;DHT22;50545;56.064;26.178;2022-07-29T03:44:45;12.40;99.90
64226;DHT22;50545;56.064;26.178;2022-07-29T03:47:14;12.40;99.90
64226;DHT22;50545;56.064;26.178;2022-07-29T03:49:48;12.40;99.90
64226;DHT22;50545;56.064;26.178;2022-07-29T03:52:18;12.50;99.90
64226;DHT22;50545;56.064;26.178;2022-07-29T03:54:45;12.50;99.90
64226;DHT22;50545;56.064;26.178;2022-07-29T03:57:14;12.50;99.90
64226;DHT22;50545;56.064;26.178;2022-07-29T03:59:43;12.50;99.90
64226;DHT22;50545;56.064;26.178;2022-07-29T04:02:11;12.50;99.90
64226;DHT22;50545;56.064;26.178;2022-07-29T04:04:42;12.60;99.90
64226;DHT22;50545;56.064;26.178;2022-07-29T04:07:12;12.60;99.90
64226;DHT22;50545;56.064;26.178;2022-07-29T04:09:40;12.60;99.90
64226;DHT22;50545;56.064;26.178;2022-07-29T04:12:08;12.70;99.90
64226;DHT22;50545;56.064;26.178;2022-07-29T04:14:36;12.80;99.90
64226;DHT22;50545;56.064;26.178;2022-07-29T04:17:04;12.80;99.90
64226;DHT22;50545;56.064;26.178;2022-07-29T04:19:31;12.90;99.90
64226;DHT22;50545;56.064;26.178;2022-07-29T04:22:00;13.00;99.90
64226;DHT22;50545;56.064;26.178;2022-07-29T04:24:28;13.10;99.90
64226;DHT22;50545;56.064;26.178;2022-07-29T04:26:55;13.20;99.90
64226;DHT22;50545;56.064;26.178;2022-07-29T04:29:22;13.30;99.90
64226;DHT22;50545;56.064;26.178;2022-07-29T04:31:50;13.40;99.90
64226;DHT22;50545;56.064;26.178;2022-07-29T04:34:17;13.40;99.90
64226;DHT22;50545;56.064;26.178;2022-07-29T04:36:45;13.40;99.90
64226;DHT22;50545;56.064;26.178;2022-07-29T04:39:13;13.40;99.90
64226;DHT22;50545;56.064;26.178;2022-07-29T04:41:48;13.40;99.90
64226;DHT22;50545;56.064;26.178;2022-07-29T04:44:20;13.30;99.90
64226;DHT22;50545;56.064;26.178;2022-07-29T04:46:54;13.30;99.90
64226;DHT22;50545;56.064;26.178;2022-07-29T04:49:22;13.30;99.90
64226;DHT22;50545;56.064;26.178;2022-07-29T04:51:49;13.30;99.90
64226;DHT22;50545;56.064;26.178;2022-07-29T04:54:17;13.40;99.90
64226;DHT22;50545;56.064;26.178;2022-07-29T04:56:45;13.40;99.90
64226;DHT22;50545;56.064;26.178;2022-07-29T04:59:13;13.50;99.90
64226;DHT22;50545;56.064;26.178;2022-07-29T05:01:40;13.50;99.90
64226;DHT22;50545;56.064;26.178;2022-07-29T05:04:08;13.60;99.90
64226;DHT22;50545;56.064;26.178;2022-07-29T05:06:36;13.70;99.90
64226;DHT22;50545;56.064;26.178;2022-07-29T05:09:03;13.70;99.90
64226;DHT22;50545;56.064;26.178;2022-07-29T05:11:30;13.80;99.90
64226;DHT22;50545;56.064;26.178;2022-07-29T05:13:57;13.80;99.90
64226;DHT22;50545;56.064;26.178;2022-07-29T05:16:25;13.90;99.90
64226;DHT22;50545;56.064;26.178;2022-07-29T05:18:52;14.00;99.90
64226;DHT22;50545;56.064;26.178;2022-07-29T05:21:20;14.10;99.90
64226;DHT22;50545;56.064;26.178;2022-07-29T05:23:47;14.10;99.90
64226;DHT22;50545;56.064;26.178;2022-07-29T05:26:14;14.20;99.90
64226;DHT22;50545;56.064;26.178;2022-07-29T05:28:41;14.20;99.90
64226;DHT22;50545;56.064;26.178;2022-07-29T05:31:09;14.30;99.90
64226;DHT22;50545;56.064;26.178;2022-07-29T05:33:36;14.30;99.90
64226;DHT22;50545;56.064;26.178;2022-07-29T05:36:04;14.30;99.90
64226;DHT22;50545;56.064;26.178;2022-07-29T05:38:35;14.20;99.90
64226;DHT22;50545;56.064;26.178;2022-07-29T05:41:04;14.20;99.90
64226;DHT22;50545;56.064;26.178;2022-07-29T05:43:31;14.20;99.90
64226;DHT22;50545;56.064;26.178;2022-07-29T05:45:59;14.20;99.90
64226;DHT22;50545;56.064;26.178;2022-07-29T05:48:27;14.30;99.90
64226;DHT22;50545;56.064;26.178;2022-07-29T05:50:54;14.30;99.90
64226;DHT22;50545;56.064;26.178;2022-07-29T05:53:22;14.40;99.90
64226;DHT22;50545;56.064;26.178;2022-07-29T05:55:51;14.50;99.90
64226;DHT22;50545;56.064;26.178;2022-07-29T05:58:19;14.60;99.90
64226;DHT22;50545;56.064;26.178;2022-07-29T06:00:46;14.70;99.90
64226;DHT22;50545;56.064;26.178;2022-07-29T06:03:13;14.70;99.90
64226;DHT22;50545;56.064;26.178;2022-07-29T06:05:41;14.80;99.90
64226;DHT22;50545;56.064;26.178;2022-07-29T06:08:08;14.90;99.90
64226;DHT22;50545;56.064;26.178;2022-07-29T06:10:35;15.00;99.90
64226;DHT22;50545;56.064;26.178;2022-07-29T06:13:03;15.10;99.90
64226;DHT22;50545;56.064;26.178;2022-07-29T06:15:30;15.10;99.90
64226;DHT22;50545;56.064;26.178;2022-07-29T06:17:57;15.20;99.90
64226;DHT22;50545;56.064;26.178;2022-07-29T06:20:31;15.40;99.90
64226;DHT22;50545;56.064;26.178;2022-07-29T06:22:59;15.50;99.90
64226;DHT22;50545;56.064;26.178;2022-07-29T06:25:27;15.60;99.90
64226;DHT22;50545;56.064;26.178;2022-07-29T06:27:58;15.60;99.90
64226;DHT22;50545;56.064;26.178;2022-07-29T06:30:25;15.70;99.90
64226;DHT22;50545;56.064;26.178;2022-07-29T06:32:53;15.70;99.90
64226;DHT22;50545;56.064;26.178;2022-07-29T06:35:21;15.80;99.90
64226;DHT22;50545;56.064;26.178;2022-07-29T06:38:08;15.90;99.90
64226;DHT22;50545;56.064;26.178;2022-07-29T06:40:56;16.10;99.90
64226;DHT22;50545;56.064;26.178;2022-07-29T06:43:40;16.10;98.10
64226;DHT22;50545;56.064;26.178;2022-07-29T06:46:21;16.00;97.80
64226;DHT22;50545;56.064;26.178;2022-07-29T06:48:49;16.00;99.90
64226;DHT22;50545;56.064;26.178;2022-07-29T06:51:17;16.10;96.90
64226;DHT22;50545;56.064;26.178;2022-07-29T06:53:52;16.20;99.20
64226;DHT22;50545;56.064;26.178;2022-07-29T06:56:28;16.40;99.40
64226;DHT22;50545;56.064;26.178;2022-07-29T06:58:55;16.60;91.60
64226;DHT22;50545;56.064;26.178;2022-07-29T07:01:22;16.60;91.00
64226;DHT22;50545;56.064;26.178;2022-07-29T07:03:50;16.40;89.70
64226;DHT22;50545;56.064;26.178;2022-07-29T07:06:17;16.30;87.70
64226;DHT22;50545;56.064;26.178;2022-07-29T07:08:44;16.30;91.70
64226;DHT22;50545;56.064;26.178;2022-07-29T07:11:11;16.40;86.00
64226;DHT22;50545;56.064;26.178;2022-07-29T07:13:38;16.40;81.30
64226;DHT22;50545;56.064;26.178;2022-07-29T07:16:06;16.40;80.70
64226;DHT22;50545;56.064;26.178;2022-07-29T07:18:33;16.30;83.30
64226;DHT22;50545;56.064;26.178;2022-07-29T07:21:00;16.40;77.60
64226;DHT22;50545;56.064;26.178;2022-07-29T07:23:27;16.40;77.40
64226;DHT22;50545;56.064;26.178;2022-07-29T07:25:55;16.60;84.90
64226;DHT22;50545;56.064;26.178;2022-07-29T07:28:22;16.70;77.40
64226;DHT22;50545;56.064;26.178;2022-07-29T07:30:51;16.80;70.60
64226;DHT22;50545;56.064;26.178;2022-07-29T07:33:18;16.70;70.40
64226;DHT22;50545;56.064;26.178;2022-07-29T07:35:46;16.80;69.70
64226;DHT22;50545;56.064;26.178;2022-07-29T07:38:13;16.80;75.50
64226;DHT22;50545;56.064;26.178;2022-07-29T07:40:41;17.10;72.60
64226;DHT22;50545;56.064;26.178;2022-07-29T07:43:08;17.10;72.40
64226;DHT22;50545;56.064;26.178;2022-07-29T07:45:35;17.00;72.30
64226;DHT22;50545;56.064;26.178;2022-07-29T07:48:04;16.90;71.90
64226;DHT22;50545;56.064;26.178;2022-07-29T07:50:32;17.00;71.50
64226;DHT22;50545;56.064;26.178;2022-07-29T07:52:59;17.10;73.50
64226;DHT22;50545;56.064;26.178;2022-07-29T07:55:29;17.30;72.70
64226;DHT22;50545;56.064;26.178;2022-07-29T07:58:16;17.50;70.00
64226;DHT22;50545;56.064;26.178;2022-07-29T08:00:43;17.70;75.20
64226;DHT22;50545;56.064;26.178;2022-07-29T08:03:10;17.70;69.90
64226;DHT22;50545;56.064;26.178;2022-07-29T08:05:43;17.70;69.40
64226;DHT22;50545;56.064;26.178;2022-07-29T08:08:10;17.70;67.30
64226;DHT22;50545;56.064;26.178;2022-07-29T08:10:38;17.60;66.00
64226;DHT22;50545;56.064;26.178;2022-07-29T08:13:22;17.80;72.70
64226;DHT22;50545;56.064;26.178;2022-07-29T08:15:50;18.10;68.40
64226;DHT22;50545;56.064;26.178;2022-07-29T08:18:40;18.00;67.70
64226;DHT22;50545;56.064;26.178;2022-07-29T08:21:07;17.50;66.90
64226;DHT22;50545;56.064;26.178;2022-07-29T08:23:34;17.30;69.90
64226;DHT22;50545;56.064;26.178;2022-07-29T08:26:15;17.30;71.00
64226;DHT22;50545;56.064;26.178;2022-07-29T08:28:43;17.50;73.60
64226;DHT22;50545;56.064;26.178;2022-07-29T08:31:16;17.70;70.30
64226;DHT22;50545;56.064;26.178;2022-07-29T08:33:43;17.80;66.10
64226;DHT22;50545;56.064;26.178;2022-07-29T08:36:12;17.90;70.50
64226;DHT22;50545;56.064;26.178;2022-07-29T08:38:41;18.00;65.60
64226;DHT22;50545;56.064;26.178;2022-07-29T08:41:08;18.20;67.80
64226;DHT22;50545;56.064;26.178;2022-07-29T08:43:35;18.30;67.00
64226;DHT22;50545;56.064;26.178;2022-07-29T08:46:04;18.40;67.70
64226;DHT22;50545;56.064;26.178;2022-07-29T08:48:32;18.60;63.30
64226;DHT22;50545;56.064;26.178;2022-07-29T08:51:01;18.70;65.20
64226;DHT22;50545;56.064;26.178;2022-07-29T08:53:30;18.60;67.30
64226;DHT22;50545;56.064;26.178;2022-07-29T08:55:57;18.10;63.40
64226;DHT22;50545;56.064;26.178;2022-07-29T08:58:26;17.90;67.40
64226;DHT22;50545;56.064;26.178;2022-07-29T09:00:55;18.10;66.30
64226;DHT22;50545;56.064;26.178;2022-07-29T09:03:25;18.30;71.20
64226;DHT22;50545;56.064;26.178;2022-07-29T09:05:54;18.60;66.90
64226;DHT22;50545;56.064;26.178;2022-07-29T09:08:22;18.80;63.90
64226;DHT22;50545;56.064;26.178;2022-07-29T09:10:50;18.90;60.70
64226;DHT22;50545;56.064;26.178;2022-07-29T09:13:18;19.00;63.20
64226;DHT22;50545;56.064;26.178;2022-07-29T09:15:45;19.10;59.10
64226;DHT22;50545;56.064;26.178;2022-07-29T09:18:12;19.30;61.60
64226;DHT22;50545;56.064;26.178;2022-07-29T09:21:00;19.40;59.90
64226;DHT22;50545;56.064;26.178;2022-07-29T09:26:30;18.90;58.30
64226;DHT22;50545;56.064;26.178;2022-07-29T09:28:58;18.60;60.30
64226;DHT22;50545;56.064;26.178;2022-07-29T09:31:33;18.60;60.10
64226;DHT22;50545;56.064;26.178;2022-07-29T09:34:01;18.70;61.10
64226;DHT22;50545;56.064;26.178;2022-07-29T09:36:29;18.90;60.50
64226;DHT22;50545;56.064;26.178;2022-07-29T09:39:04;19.20;60.20
64226;DHT22;50545;56.064;26.178;2022-07-29T09:41:49;19.40;56.70
64226;DHT22;50545;56.064;26.178;2022-07-29T09:44:17;19.60;58.50
64226;DHT22;50545;56.064;26.178;2022-07-29T09:46:59;19.70;56.80
64226;DHT22;50545;56.064;26.178;2022-07-29T09:49:34;19.90;55.20
64226;DHT22;50545;56.064;26.178;2022-07-29T09:52:05;20.00;55.70
64226;DHT22;50545;56.064;26.178;2022-07-29T09:54:33;19.90;56.00
64226;DHT22;50545;56.064;26.178;2022-07-29T09:57:24;19.80;54.30
64226;DHT22;50545;56.064;26.178;2022-07-29T10:00:16;19.70;56.90
64226;DHT22;50545;56.064;26.178;2022-07-29T10:02:46;19.90;56.90
64226;DHT22;50545;56.064;26.178;2022-07-29T10:05:24;20.00;56.60
64226;DHT22;50545;56.064;26.178;2022-07-29T10:07:56;19.80;56.80
64226;DHT22;50545;56.064;26.178;2022-07-29T10:10:25;19.40;56.90
64226;DHT22;50545;56.064;26.178;2022-07-29T10:12:59;19.00;58.70
64226;DHT22;50545;56.064;26.178;2022-07-29T10:15:41;18.80;59.80
64226;DHT22;50545;56.064;26.178;2022-07-29T10:18:11;19.00;57.80
64226;DHT22;50545;56.064;26.178;2022-07-29T10:20:40;19.40;54.60
64226;DHT22;50545;56.064;26.178;2022-07-29T10:23:08;19.90;56.60
64226;DHT22;50545;56.064;26.178;2022-07-29T10:25:36;20.10;54.60
64226;DHT22;50545;56.064;26.178;2022-07-29T10:28:04;19.90;57.90
64226;DHT22;50545;56.064;26.178;2022-07-29T10:30:32;19.50;56.40
64226;DHT22;50545;56.064;26.178;2022-07-29T10:36:25;19.00;59.10
64226;DHT22;50545;56.064;26.178;2022-07-29T10:39:19;19.30;56.70
64226;DHT22;50545;56.064;26.178;2022-07-29T10:42:15;19.60;57.30
64226;DHT22;50545;56.064;26.178;2022-07-29T10:44:46;19.80;54.70
64226;DHT22;50545;56.064;26.178;2022-07-29T10:47:24;19.40;54.40
64226;DHT22;50545;56.064;26.178;2022-07-29T10:50:05;19.00;53.80
64226;DHT22;50545;56.064;26.178;2022-07-29T10:52:54;19.10;56.70
64226;DHT22;50545;56.064;26.178;2022-07-29T10:55:38;19.40;56.40
64226;DHT22;50545;56.064;26.178;2022-07-29T10:58:22;19.90;54.00
64226;DHT22;50545;56.064;26.178;2022-07-29T11:00:52;20.30;49.80
64226;DHT22;50545;56.064;26.178;2022-07-29T11:03:46;20.70;50.30
64226;DHT22;50545;56.064;26.178;2022-07-29T11:06:18;21.10;52.40
64226;DHT22;50545;56.064;26.178;2022-07-29T11:09:18;21.50;49.70
64226;DHT22;50545;56.064;26.178;2022-07-29T11:12:01;21.70;51.30
64226;DHT22;50545;56.064;26.178;2022-07-29T11:17:25;21.60;52.80
64226;DHT22;50545;56.064;26.178;2022-07-29T11:22:58;21.60;48.90
64226;DHT22;50545;56.064;26.178;2022-07-29T11:25:26;21.60;47.50
64226;DHT22;50545;56.064;26.178;2022-07-29T11:28:19;21.70;47.90
64226;DHT22;50545;56.064;26.178;2022-07-29T11:30:52;21.90;49.20
64226;DHT22;50545;56.064;26.178;2022-07-29T11:33:33;21.50;48.90
64226;DHT22;50545;56.064;26.178;2022-07-29T11:36:20;21.00;48.40
64226;DHT22;50545;56.064;26.178;2022-07-29T11:39:26;20.90;56.90
64226;DHT22;50545;56.064;26.178;2022-07-29T11:47:50;21.60;50.40
64226;DHT22;50545;56.064;26.178;2022-07-29T11:50:32;21.70;48.60
64226;DHT22;50545;56.064;26.178;2022-07-29T11:53:02;21.70;48.10
64226;DHT22;50545;56.064;26.178;2022-07-29T11:55:54;22.00;55.90
64226;DHT22;50545;56.064;26.178;2022-07-29T11:58:24;22.30;51.80
64226;DHT22;50545;56.064;26.178;2022-07-29T12:00:52;22.30;49.60
64226;DHT22;50545;56.064;26.178;2022-07-29T12:03:26;22.20;45.60
64226;DHT22;50545;56.064;26.178;2022-07-29T12:06:04;21.80;49.60
64226;DHT22;50545;56.064;26.178;2022-07-29T12:08:42;21.60;50.40
64226;DHT22;50545;56.064;26.178;2022-07-29T12:11:18;21.30;51.40
64226;DHT22;50545;56.064;26.178;2022-07-29T12:13:49;21.00;52.80
64226;DHT22;50545;56.064;26.178;2022-07-29T12:16:17;20.80;52.80
64226;DHT22;50545;56.064;26.178;2022-07-29T12:18:59;20.70;52.30
64226;DHT22;50545;56.064;26.178;2022-07-29T12:21:29;20.50;55.10
64226;DHT22;50545;56.064;26.178;2022-07-29T12:23:57;20.90;55.30
64226;DHT22;50545;56.064;26.178;2022-07-29T12:26:35;21.40;56.20
64226;DHT22;50545;56.064;26.178;2022-07-29T12:29:02;21.80;50.70
64226;DHT22;50545;56.064;26.178;2022-07-29T12:31:41;22.30;47.50
64226;DHT22;50545;56.064;26.178;2022-07-29T12:34:12;22.50;50.00
64226;DHT22;50545;56.064;26.178;2022-07-29T12:36:42;22.60;52.90
64226;DHT22;50545;56.064;26.178;2022-07-29T12:39:10;22.30;46.10
64226;DHT22;50545;56.064;26.178;2022-07-29T12:41:38;22.10;47.20
64226;DHT22;50545;56.064;26.178;2022-07-29T12:44:05;22.10;48.20
64226;DHT22;50545;56.064;26.178;2022-07-29T12:46:33;22.40;49.70
64226;DHT22;50545;56.064;26.178;2022-07-29T12:49:00;22.80;46.70
64226;DHT22;50545;56.064;26.178;2022-07-29T12:51:33;23.10;44.10
64226;DHT22;50545;56.064;26.178;2022-07-29T12:54:06;23.30;44.80
64226;DHT22;50545;56.064;26.178;2022-07-29T12:56:34;23.30;48.40
64226;DHT22;50545;56.064;26.178;2022-07-29T12:59:21;23.40;46.00
64226;DHT22;50545;56.064;26.178;2022-07-29T13:01:50;22.90;46.30
64226;DHT22;50545;56.064;26.178;2022-07-29T13:04:32;22.50;48.50
64226;DHT22;50545;56.064;26.178;2022-07-29T13:07:07;22.50;51.30
64226;DHT22;50545;56.064;26.178;2022-07-29T13:09:43;23.00;53.20
64226;DHT22;50545;56.064;26.178;2022-07-29T13:12:13;23.60;47.50
64226;DHT22;50545;56.064;26.178;2022-07-29T13:14:46;23.50;45.80
64226;DHT22;50545;56.064;26.178;2022-07-29T13:17:25;23.40;46.00
64226;DHT22;50545;56.064;26.178;2022-07-29T13:20:06;22.90;47.30
64226;DHT22;50545;56.064;26.178;2022-07-29T13:22:36;22.50;48.40
64226;DHT22;50545;56.064;26.178;2022-07-29T13:25:03;22.50;48.20
64226;DHT22;50545;56.064;26.178;2022-07-29T13:27:34;22.70;45.50
64226;DHT22;50545;56.064;26.178;2022-07-29T13:30:06;23.00;43.80
64226;DHT22;50545;56.064;26.178;2022-07-29T13:32:34;23.30;42.30
64226;DHT22;50545;56.064;26.178;2022-07-29T13:35:05;23.40;42.50
64226;DHT22;50545;56.064;26.178;2022-07-29T13:37:34;23.70;42.00
64226;DHT22;50545;56.064;26.178;2022-07-29T13:40:07;24.00;44.50
64226;DHT22;50545;56.064;26.178;2022-07-29T13:42:35;24.40;45.00
64226;DHT22;50545;56.064;26.178;2022-07-29T13:45:03;24.60;39.10
64226;DHT22;50545;56.064;26.178;2022-07-29T13:47:31;25.00;41.40
64226;DHT22;50545;56.064;26.178;2022-07-29T13:50:00;25.50;42.80
64226;DHT22;50545;56.064;26.178;2022-07-29T13:52:28;26.10;39.90
64226;DHT22;50545;56.064;26.178;2022-07-29T13:54:56;26.00;40.50
64226;DHT22;50545;56.064;26.178;2022-07-29T13:57:23;26.20;39.20
64226;DHT22;50545;56.064;26.178;2022-07-29T13:59:51;26.10;39.90
64226;DHT22;50545;56.064;26.178;2022-07-29T14:02:20;25.80;40.20
64226;DHT22;50545;56.064;26.178;2022-07-29T14:04:52;25.80;38.60
64226;DHT22;50545;56.064;26.178;2022-07-29T14:07:21;25.60;41.00
64226;DHT22;50545;56.064;26.178;2022-07-29T14:09:48;25.30;40.30
64226;DHT22;50545;56.064;26.178;2022-07-29T14:12:15;25.10;41.90
64226;DHT22;50545;56.064;26.178;2022-07-29T14:14:43;24.80;41.40
64226;DHT22;50545;56.064;26.178;2022-07-29T14:17:13;24.60;41.20
64226;DHT22;50545;56.064;26.178;2022-07-29T14:19:40;24.50;40.00
64226;DHT22;50545;56.064;26.178;2022-07-29T14:22:08;24.50;40.90
64226;DHT22;50545;56.064;26.178;2022-07-29T14:24:37;24.40;42.20
64226;DHT22;50545;56.064;26.178;2022-07-29T14:27:05;24.40;41.60
64226;DHT22;50545;56.064;26.178;2022-07-29T14:29:33;24.40;40.30
64226;DHT22;50545;56.064;26.178;2022-07-29T14:32:08;24.50;43.60
64226;DHT22;50545;56.064;26.178;2022-07-29T14:34:37;24.80;42.10
64226;DHT22;50545;56.064;26.178;2022-07-29T14:37:05;25.10;41.70
64226;DHT22;50545;56.064;26.178;2022-07-29T14:39:34;25.30;41.50
64226;DHT22;50545;56.064;26.178;2022-07-29T14:42:09;25.40;42.00
64226;DHT22;50545;56.064;26.178;2022-07-29T14:44:39;25.10;39.80
64226;DHT22;50545;56.064;26.178;2022-07-29T14:47:08;24.80;40.80
64226;DHT22;50545;56.064;26.178;2022-07-29T14:49:36;24.80;41.30
64226;DHT22;50545;56.064;26.178;2022-07-29T14:52:03;24.70;39.10
64226;DHT22;50545;56.064;26.178;2022-07-29T14:54:31;24.80;40.70
64226;DHT22;50545;56.064;26.178;2022-07-29T14:56:58;24.50;39.90
64226;DHT22;50545;56.064;26.178;2022-07-29T14:59:26;24.10;41.60
64226;DHT22;50545;56.064;26.178;2022-07-29T15:01:54;23.20;42.30
64226;DHT22;50545;56.064;26.178;2022-07-29T15:04:21;23.00;44.80
64226;DHT22;50545;56.064;26.178;2022-07-29T15:06:48;23.10;45.50
64226;DHT22;50545;56.064;26.178;2022-07-29T15:09:16;23.50;45.00
64226;DHT22;50545;56.064;26.178;2022-07-29T15:11:43;23.80;47.10
64226;DHT22;50545;56.064;26.178;2022-07-29T15:14:11;24.30;43.90
64226;DHT22;50545;56.064;26.178;2022-07-29T15:16:39;24.70;42.20
64226;DHT22;50545;56.064;26.178;2022-07-29T15:19:09;25.10;40.20
64226;DHT22;50545;56.064;26.178;2022-07-29T15:21:37;25.60;43.80
64226;DHT22;50545;56.064;26.178;2022-07-29T15:24:14;26.20;38.70
64226;DHT22;50545;56.064;26.178;2022-07-29T15:26:43;26.80;39.50
64226;DHT22;50545;56.064;26.178;2022-07-29T15:29:11;27.10;38.30
64226;DHT22;50545;56.064;26.178;2022-07-29T15:31:38;27.20;37.50
64226;DHT22;50545;56.064;26.178;2022-07-29T15:34:07;27.10;36.90
64226;DHT22;50545;56.064;26.178;2022-07-29T15:36:34;27.00;40.00
64226;DHT22;50545;56.064;26.178;2022-07-29T15:39:19;27.30;39.50
64226;DHT22;50545;56.064;26.178;2022-07-29T15:41:48;27.30;37.50
64226;DHT22;50545;56.064;26.178;2022-07-29T15:44:15;27.20;37.90
64226;DHT22;50545;56.064;26.178;2022-07-29T15:46:42;27.20;38.90
64226;DHT22;50545;56.064;26.178;2022-07-29T15:49:29;27.00;38.30
64226;DHT22;50545;56.064;26.178;2022-07-29T15:52:18;26.50;37.50
64226;DHT22;50545;56.064;26.178;2022-07-29T15:54:55;26.20;39.40
64226;DHT22;50545;56.064;26.178;2022-07-29T15:57:24;26.20;40.70
64226;DHT22;50545;56.064;26.178;2022-07-29T15:59:51;26.30;40.10
64226;DHT22;50545;56.064;26.178;2022-07-29T16:02:18;26.70;40.50
64226;DHT22;50545;56.064;26.178;2022-07-29T16:04:46;27.10;40.20
64226;DHT22;50545;56.064;26.178;2022-07-29T16:07:14;27.30;37.60
64226;DHT22;50545;56.064;26.178;2022-07-29T16:09:42;27.10;36.90
64226;DHT22;50545;56.064;26.178;2022-07-29T16:12:16;27.10;37.80
64226;DHT22;50545;56.064;26.178;2022-07-29T16:14:44;27.00;36.80
64226;DHT22;50545;56.064;26.178;2022-07-29T16:17:11;27.00;38.60
64226;DHT22;50545;56.064;26.178;2022-07-29T16:19:43;27.40;39.90
64226;DHT22;50545;56.064;26.178;2022-07-29T16:22:11;27.70;37.60
64226;DHT22;50545;56.064;26.178;2022-07-29T16:24:39;27.80;36.30